sensor_id;sensor_type;location;lat;lon;timestamp;P1;durP1;ratioP1;P2;durP2;ratioP2
37309;SDS011;23195;47.744;7.358;2023-07-16T04:45:26;2.07;;;1.40;;
37309;SDS011;23195;47.744;7.358;2023-07-16T04:50:19;2.23;;;1.33;;
37309;SDS011;23195;47.744;7.358;2023-07-16T04:52:45;2.10;;;1.30;;
37309;SDS011;23195;47.744;7.358;2023-07-16T04:55:11;2.63;;;1.67;;
37309;SDS011;23195;47.744;7.358;2023-07-16T04:57:37;2.60;;;1.60;;
37309;SDS011;23195;47.744;7.358;2023-07-16T05:00:03;5.50;;;1.50;;
37309;SDS011;23195;47.744;7.358;2023-07-16T05:02:31;2.10;;;1.40;;
37309;SDS011;23195;47.744;7.358;2023-07-16T05:04:57;4.13;;;1.70;;
37309;SDS011;23195;47.744;7.358;2023-07-16T05:07:23;4.67;;;1.50;;
37309;SDS011;23195;47.744;7.358;2023-07-16T05:09:49;5.63;;;1.30;;
37309;SDS011;23195;47.744;7.358;2023-07-16T05:12:14;3.50;;;1.40;;
37309;SDS011;23195;47.744;7.358;2023-07-16T05:14:47;3.73;;;1.40;;
37309;SDS011;23195;47.744;7.358;2023-07-16T05:17:13;3.00;;;1.60;;
37309;SDS011;23195;47.744;7.358;2023-07-16T05:19:40;3.50;;;1.60;;
37309;SDS011;23195;47.744;7.358;2023-07-16T05:22:06;4.60;;;1.63;;
37309;SDS011;23195;47.744;7.358;2023-07-16T05:24:34;5.10;;;1.50;;
37309;SDS011;23195;47.744;7.358;2023-07-16T05:27:00;3.30;;;1.40;;
37309;SDS011;23195;47.744;7.358;2023-07-16T05:29:26;4.17;;;1.23;;
37309;SDS011;23195;47.744;7.358;2023-07-16T05:31:52;4.10;;;1.43;;
37309;SDS011;23195;47.744;7.358;2023-07-16T05:34:18;3.00;;;1.50;;
37309;SDS011;23195;47.744;7.358;2023-07-16T05:36:47;2.53;;;1.10;;
37309;SDS011;23195;47.744;7.358;2023-07-16T05:39:12;2.20;;;1.20;;
37309;SDS011;23195;47.744;7.358;2023-07-16T05:41:38;2.00;;;1.10;;
37309;SDS011;23195;47.744;7.358;2023-07-16T05:44:05;1.13;;;0.80;;
37309;SDS011;23195;47.744;7.358;2023-07-16T05:46:31;2.10;;;1.10;;
37309;SDS011;23195;47.744;7.358;2023-07-16T05:48:58;1.77;;;1.10;;
37309;SDS011;23195;47.744;7.358;2023-07-16T05:51:23;1.73;;;1.10;;
37309;SDS011;23195;47.744;7.358;2023-07-16T05:53:49;0.93;;;0.83;;
37309;SDS011;23195;47.744;7.358;2023-07-16T05:56:15;2.17;;;1.10;;
37309;SDS011;23195;47.744;7.358;2023-07-16T05:58:41;1.70;;;1.10;;
37309;SDS011;23195;47.744;7.358;2023-07-16T06:01:06;3.47;;;1.00;;
37309;SDS011;23195;47.744;7.358;2023-07-16T06:03:33;3.53;;;1.10;;
37309;SDS011;23195;47.744;7.358;2023-07-16T06:05:58;2.33;;;1.07;;
37309;SDS011;23195;47.744;7.358;2023-07-16T06:08:24;3.57;;;1.30;;
37309;SDS011;23195;47.744;7.358;2023-07-16T06:10:50;2.83;;;1.37;;
37309;SDS011;23195;47.744;7.358;2023-07-16T06:13:16;1.67;;;1.00;;
37309;SDS011;23195;47.744;7.358;2023-07-16T06:15:42;1.80;;;1.00;;
37309;SDS011;23195;47.744;7.358;2023-07-16T06:18:09;2.17;;;1.40;;
37309;SDS011;23195;47.744;7.358;2023-07-16T06:20:37;3.93;;;1.50;;
37309;SDS011;23195;47.744;7.358;2023-07-16T06:23:03;1.83;;;1.30;;
37309;SDS011;23195;47.744;7.358;2023-07-16T06:25:29;3.40;;;1.47;;
37309;SDS011;23195;47.744;7.358;2023-07-16T06:27:55;2.83;;;1.30;;
37309;SDS011;23195;47.744;7.358;2023-07-16T06:30:22;3.13;;;1.27;;
37309;SDS011;23195;47.744;7.358;2023-07-16T06:33:05;4.93;;;1.43;;
37309;SDS011;23195;47.744;7.358;2023-07-16T06:38:43;3.93;;;1.33;;
37309;SDS011;23195;47.744;7.358;2023-07-16T06:41:37;3.77;;;1.40;;
37309;SDS011;23195;47.744;7.358;2023-07-16T06:47:04;2.27;;;1.30;;
37309;SDS011;23195;47.744;7.358;2023-07-16T06:49:49;7.03;;;1.67;;
37309;SDS011;23195;47.744;7.358;2023-07-16T06:56:09;2.20;;;1.30;;
37309;SDS011;23195;47.744;7.358;2023-07-16T06:59:08;4.20;;;1.40;;
37309;SDS011;23195;47.744;7.358;2023-07-16T07:02:01;3.63;;;1.33;;
37309;SDS011;23195;47.744;7.358;2023-07-16T07:04:54;3.37;;;1.30;;
37309;SDS011;23195;47.744;7.358;2023-07-16T07:07:32;4.67;;;1.50;;
37309;SDS011;23195;47.744;7.358;2023-07-16T07:10:28;3.70;;;1.40;;
37309;SDS011;23195;47.744;7.358;2023-07-16T07:13:04;1.77;;;1.10;;
37309;SDS011;23195;47.744;7.358;2023-07-16T07:15:51;4.03;;;1.17;;
37309;SDS011;23195;47.744;7.358;2023-07-16T07:21:44;3.57;;;1.13;;
37309;SDS011;23195;47.744;7.358;2023-07-16T07:24:22;2.23;;;1.17;;
37309;SDS011;23195;47.744;7.358;2023-07-16T07:27:18;4.43;;;1.40;;
37309;SDS011;23195;47.744;7.358;2023-07-16T07:30:22;2.30;;;1.20;;
37309;SDS011;23195;47.744;7.358;2023-07-16T07:33:16;5.33;;;1.40;;
37309;SDS011;23195;47.744;7.358;2023-07-16T07:39:16;8.13;;;1.60;;
37309;SDS011;23195;47.744;7.358;2023-07-16T07:42:01;4.03;;;1.57;;
37309;SDS011;23195;47.744;7.358;2023-07-16T07:44:38;3.50;;;1.33;;
37309;SDS011;23195;47.744;7.358;2023-07-16T07:47:16;7.37;;;1.80;;
37309;SDS011;23195;47.744;7.358;2023-07-16T07:49:52;6.07;;;1.40;;
37309;SDS011;23195;47.744;7.358;2023-07-16T07:55:49;4.83;;;1.40;;
37309;SDS011;23195;47.744;7.358;2023-07-16T07:58:33;3.23;;;1.30;;
37309;SDS011;23195;47.744;7.358;2023-07-16T08:01:09;2.73;;;1.47;;
37309;SDS011;23195;47.744;7.358;2023-07-16T08:04:08;3.53;;;1.50;;
37309;SDS011;23195;47.744;7.358;2023-07-16T08:09:54;3.20;;;1.53;;
37309;SDS011;23195;47.744;7.358;2023-07-16T08:13:00;6.50;;;1.93;;
37309;SDS011;23195;47.744;7.358;2023-07-16T08:15:33;5.03;;;1.30;;
37309;SDS011;23195;47.744;7.358;2023-07-16T08:21:58;3.90;;;1.70;;
37309;SDS011;23195;47.744;7.358;2023-07-16T08:24:40;3.60;;;1.60;;
37309;SDS011;23195;47.744;7.358;2023-07-16T08:27:43;2.87;;;1.30;;
37309;SDS011;23195;47.744;7.358;2023-07-16T08:30:32;3.87;;;1.47;;
37309;SDS011;23195;47.744;7.358;2023-07-16T08:33:01;2.80;;;1.40;;
37309;SDS011;23195;47.744;7.358;2023-07-16T08:35:57;4.10;;;1.60;;
37309;SDS011;23195;47.744;7.358;2023-07-16T08:42:06;2.07;;;1.23;;
37309;SDS011;23195;47.744;7.358;2023-07-16T08:45:12;2.63;;;1.33;;
37309;SDS011;23195;47.744;7.358;2023-07-16T08:47:51;4.33;;;1.60;;
37309;SDS011;23195;47.744;7.358;2023-07-16T09:00:19;5.90;;;1.53;;
37309;SDS011;23195;47.744;7.358;2023-07-16T09:09:27;5.33;;;1.60;;
37309;SDS011;23195;47.744;7.358;2023-07-16T09:12:04;4.87;;;1.70;;
37309;SDS011;23195;47.744;7.358;2023-07-16T09:14:53;4.80;;;1.73;;
37309;SDS011;23195;47.744;7.358;2023-07-16T09:17:26;4.77;;;1.57;;
37309;SDS011;23195;47.744;7.358;2023-07-16T09:26:54;3.33;;;1.70;;
37309;SDS011;23195;47.744;7.358;2023-07-16T09:29:32;5.03;;;1.63;;
37309;SDS011;23195;47.744;7.358;2023-07-16T09:32:33;7.40;;;2.20;;
37309;SDS011;23195;47.744;7.358;2023-07-16T09:35:17;3.53;;;1.83;;
37309;SDS011;23195;47.744;7.358;2023-07-16T09:41:33;6.27;;;1.63;;
37309;SDS011;23195;47.744;7.358;2023-07-16T09:47:18;5.97;;;1.83;;
37309;SDS011;23195;47.744;7.358;2023-07-16T09:50:00;5.93;;;1.87;;
37309;SDS011;23195;47.744;7.358;2023-07-16T09:52:53;4.40;;;1.80;;
37309;SDS011;23195;47.744;7.358;2023-07-16T09:55:32;2.77;;;1.70;;
37309;SDS011;23195;47.744;7.358;2023-07-16T09:58:20;3.70;;;1.63;;
37309;SDS011;23195;47.744;7.358;2023-07-16T10:04:36;4.83;;;1.80;;
37309;SDS011;23195;47.744;7.358;2023-07-16T10:07:25;4.97;;;1.90;;
37309;SDS011;23195;47.744;7.358;2023-07-16T10:10:25;4.07;;;1.77;;
37309;SDS011;23195;47.744;7.358;2023-07-16T10:13:22;4.30;;;1.50;;
37309;SDS011;23195;47.744;7.358;2023-07-16T10:19:28;5.63;;;1.67;;
37309;SDS011;23195;47.744;7.358;2023-07-16T10:22:30;5.87;;;2.00;;
37309;SDS011;23195;47.744;7.358;2023-07-16T10:25:27;5.70;;;2.00;;
37309;SDS011;23195;47.744;7.358;2023-07-16T10:28:41;4.53;;;1.60;;
37309;SDS011;23195;47.744;7.358;2023-07-16T10:35:12;3.90;;;1.70;;
37309;SDS011;23195;47.744;7.358;2023-07-16T10:37:46;6.20;;;2.00;;
37309;SDS011;23195;47.744;7.358;2023-07-16T10:44:25;5.23;;;2.03;;
37309;SDS011;23195;47.744;7.358;2023-07-16T10:47:22;6.57;;;2.80;;
37309;SDS011;23195;47.744;7.358;2023-07-16T10:54:12;4.50;;;1.70;;
37309;SDS011;23195;47.744;7.358;2023-07-16T11:00:41;5.73;;;1.90;;
37309;SDS011;23195;47.744;7.358;2023-07-16T11:07:21;4.13;;;2.10;;
37309;SDS011;23195;47.744;7.358;2023-07-16T11:10:11;5.10;;;1.97;;
37309;SDS011;23195;47.744;7.358;2023-07-16T11:13:06;4.33;;;1.93;;
37309;SDS011;23195;47.744;7.358;2023-07-16T11:16:23;10.43;;;5.10;;
37309;SDS011;23195;47.744;7.358;2023-07-16T11:25:23;15.30;;;7.50;;
37309;SDS011;23195;47.744;7.358;2023-07-16T11:28:02;3.37;;;2.17;;
37309;SDS011;23195;47.744;7.358;2023-07-16T11:30:35;5.10;;;1.90;;
37309;SDS011;23195;47.744;7.358;2023-07-16T11:33:11;4.03;;;1.87;;
37309;SDS011;23195;47.744;7.358;2023-07-16T11:39:02;3.50;;;1.73;;
37309;SDS011;23195;47.744;7.358;2023-07-16T11:42:29;3.23;;;1.70;;
37309;SDS011;23195;47.744;7.358;2023-07-16T11:48:35;4.17;;;1.50;;
37309;SDS011;23195;47.744;7.358;2023-07-16T11:58:59;5.23;;;2.07;;
37309;SDS011;23195;47.744;7.358;2023-07-16T13:18:14;5.73;;;2.10;;
37309;SDS011;23195;47.744;7.358;2023-07-16T13:20:59;4.03;;;1.87;;
37309;SDS011;23195;47.744;7.358;2023-07-16T13:23:30;6.30;;;2.17;;
37309;SDS011;23195;47.744;7.358;2023-07-16T13:26:12;4.77;;;1.83;;
37309;SDS011;23195;47.744;7.358;2023-07-16T13:28:38;5.33;;;2.07;;
37309;SDS011;23195;47.744;7.358;2023-07-16T13:31:04;10.20;;;2.30;;
37309;SDS011;23195;47.744;7.358;2023-07-16T13:33:33;3.97;;;1.97;;
37309;SDS011;23195;47.744;7.358;2023-07-16T13:36:27;6.67;;;2.27;;
37309;SDS011;23195;47.744;7.358;2023-07-16T13:39:27;4.03;;;1.60;;
37309;SDS011;23195;47.744;7.358;2023-07-16T13:42:22;3.90;;;2.10;;
37309;SDS011;23195;47.744;7.358;2023-07-16T13:45:13;6.23;;;2.10;;
37309;SDS011;23195;47.744;7.358;2023-07-16T13:47:49;3.70;;;2.07;;
37309;SDS011;23195;47.744;7.358;2023-07-16T13:50:40;4.60;;;1.77;;
37309;SDS011;23195;47.744;7.358;2023-07-16T13:53:31;3.80;;;2.00;;
37309;SDS011;23195;47.744;7.358;2023-07-16T13:56:32;4.10;;;1.70;;
37309;SDS011;23195;47.744;7.358;2023-07-16T13:59:18;4.03;;;1.90;;
37309;SDS011;23195;47.744;7.358;2023-07-16T14:02:00;5.17;;;1.93;;
37309;SDS011;23195;47.744;7.358;2023-07-16T14:04:37;3.77;;;1.97;;
37309;SDS011;23195;47.744;7.358;2023-07-16T14:10:08;3.73;;;1.83;;
37309;SDS011;23195;47.744;7.358;2023-07-16T14:12:47;3.63;;;2.00;;
37309;SDS011;23195;47.744;7.358;2023-07-16T14:15:13;4.20;;;1.80;;
37309;SDS011;23195;47.744;7.358;2023-07-16T14:18:04;4.90;;;2.00;;
37309;SDS011;23195;47.744;7.358;2023-07-16T14:30:18;5.43;;;2.30;;
37309;SDS011;23195;47.744;7.358;2023-07-16T14:39:36;4.00;;;1.70;;
37309;SDS011;23195;47.744;7.358;2023-07-16T14:42:32;5.97;;;2.33;;
37309;SDS011;23195;47.744;7.358;2023-07-16T14:45:06;3.70;;;2.50;;
37309;SDS011;23195;47.744;7.358;2023-07-16T14:51:07;5.77;;;2.30;;
37309;SDS011;23195;47.744;7.358;2023-07-16T14:54:03;4.07;;;2.27;;
37309;SDS011;23195;47.744;7.358;2023-07-16T15:00:07;3.63;;;2.00;;
37309;SDS011;23195;47.744;7.358;2023-07-16T15:05:58;2.67;;;1.63;;
37309;SDS011;23195;47.744;7.358;2023-07-16T15:08:43;4.33;;;2.00;;
37309;SDS011;23195;47.744;7.358;2023-07-16T15:11:30;5.50;;;1.80;;
37309;SDS011;23195;47.744;7.358;2023-07-16T15:14:08;4.93;;;1.97;;
37309;SDS011;23195;47.744;7.358;2023-07-16T15:19:55;7.57;;;2.10;;
37309;SDS011;23195;47.744;7.358;2023-07-16T15:22:35;2.50;;;1.70;;
37309;SDS011;23195;47.744;7.358;2023-07-16T15:25:03;4.47;;;1.80;;
37309;SDS011;23195;47.744;7.358;2023-07-16T15:31:02;3.83;;;1.93;;
37309;SDS011;23195;47.744;7.358;2023-07-16T15:33:56;6.13;;;2.17;;
37309;SDS011;23195;47.744;7.358;2023-07-16T15:36:42;4.53;;;2.00;;
37309;SDS011;23195;47.744;7.358;2023-07-16T15:39:48;5.60;;;1.93;;
37309;SDS011;23195;47.744;7.358;2023-07-16T15:42:32;3.50;;;1.87;;
37309;SDS011;23195;47.744;7.358;2023-07-16T15:45:23;3.97;;;1.97;;
37309;SDS011;23195;47.744;7.358;2023-07-16T15:51:07;3.33;;;2.07;;
37309;SDS011;23195;47.744;7.358;2023-07-16T15:53:52;3.13;;;2.03;;
37309;SDS011;23195;47.744;7.358;2023-07-16T16:00:29;5.33;;;2.40;;
37309;SDS011;23195;47.744;7.358;2023-07-16T16:03:09;3.20;;;1.97;;
37309;SDS011;23195;47.744;7.358;2023-07-16T16:09:15;2.57;;;1.80;;
37309;SDS011;23195;47.744;7.358;2023-07-16T16:15:05;3.97;;;1.90;;
37309;SDS011;23195;47.744;7.358;2023-07-16T16:18:02;2.57;;;1.70;;
37309;SDS011;23195;47.744;7.358;2023-07-16T16:21:01;3.67;;;2.03;;
37309;SDS011;23195;47.744;7.358;2023-07-16T16:27:08;4.87;;;2.03;;
37309;SDS011;23195;47.744;7.358;2023-07-16T16:33:19;4.50;;;2.90;;
37309;SDS011;23195;47.744;7.358;2023-07-16T16:36:50;4.50;;;1.97;;
37309;SDS011;23195;47.744;7.358;2023-07-16T16:45:34;5.43;;;3.53;;
37309;SDS011;23195;47.744;7.358;2023-07-16T16:51:30;2.43;;;1.70;;
37309;SDS011;23195;47.744;7.358;2023-07-16T16:54:11;4.13;;;2.40;;
37309;SDS011;23195;47.744;7.358;2023-07-16T16:56:50;4.20;;;2.20;;
37309;SDS011;23195;47.744;7.358;2023-07-16T17:03:11;5.37;;;2.03;;
37309;SDS011;23195;47.744;7.358;2023-07-16T17:09:34;3.60;;;2.00;;
37309;SDS011;23195;47.744;7.358;2023-07-16T17:22:55;4.23;;;2.30;;
37309;SDS011;23195;47.744;7.358;2023-07-16T17:28:49;5.60;;;2.10;;
37309;SDS011;23195;47.744;7.358;2023-07-16T17:31:33;3.63;;;1.97;;
37309;SDS011;23195;47.744;7.358;2023-07-16T17:34:15;4.83;;;2.80;;
37309;SDS011;23195;47.744;7.358;2023-07-16T17:36:56;3.83;;;2.10;;
37309;SDS011;23195;47.744;7.358;2023-07-16T17:46:21;3.93;;;2.20;;
37309;SDS011;23195;47.744;7.358;2023-07-16T18:08:16;3.60;;;2.20;;
37309;SDS011;23195;47.744;7.358;2023-07-16T18:11:10;5.17;;;2.20;;
37309;SDS011;23195;47.744;7.358;2023-07-16T18:14:12;5.07;;;2.60;;
37309;SDS011;23195;47.744;7.358;2023-07-16T18:17:00;3.47;;;2.27;;
37309;SDS011;23195;47.744;7.358;2023-07-16T18:23:07;6.53;;;2.03;;
37309;SDS011;23195;47.744;7.358;2023-07-16T18:25:58;5.93;;;2.10;;
37309;SDS011;23195;47.744;7.358;2023-07-16T18:28:44;4.67;;;2.27;;
37309;SDS011;23195;47.744;7.358;2023-07-16T18:35:11;7.23;;;2.23;;
37309;SDS011;23195;47.744;7.358;2023-07-16T18:41:59;4.73;;;2.30;;
37309;SDS011;23195;47.744;7.358;2023-07-16T20:23:40;4.57;;;2.40;;
37309;SDS011;23195;47.744;7.358;2023-07-16T20:26:06;5.30;;;2.30;;
37309;SDS011;23195;47.744;7.358;2023-07-16T20:28:32;6.10;;;2.50;;
37309;SDS011;23195;47.744;7.358;2023-07-16T20:30:58;5.60;;;2.40;;
37309;SDS011;23195;47.744;7.358;2023-07-16T20:33:23;8.27;;;2.37;;
37309;SDS011;23195;47.744;7.358;2023-07-16T20:35:49;4.93;;;2.40;;
37309;SDS011;23195;47.744;7.358;2023-07-16T20:38:16;3.50;;;2.20;;
37309;SDS011;23195;47.744;7.358;2023-07-16T20:40:42;5.33;;;2.40;;
37309;SDS011;23195;47.744;7.358;2023-07-16T20:43:23;7.57;;;2.60;;
37309;SDS011;23195;47.744;7.358;2023-07-16T20:45:49;6.63;;;2.83;;
37309;SDS011;23195;47.744;7.358;2023-07-16T20:48:15;3.83;;;2.20;;
37309;SDS011;23195;47.744;7.358;2023-07-16T20:50:43;6.63;;;2.47;;
37309;SDS011;23195;47.744;7.358;2023-07-16T20:53:09;5.13;;;2.90;;
37309;SDS011;23195;47.744;7.358;2023-07-16T20:55:35;6.90;;;2.20;;
37309;SDS011;23195;47.744;7.358;2023-07-16T20:58:01;5.77;;;2.73;;
37309;SDS011;23195;47.744;7.358;2023-07-16T21:00:27;3.40;;;2.17;;
37309;SDS011;23195;47.744;7.358;2023-07-16T21:02:57;5.23;;;2.40;;
37309;SDS011;23195;47.744;7.358;2023-07-16T21:05:25;5.03;;;2.33;;
37309;SDS011;23195;47.744;7.358;2023-07-16T21:07:52;6.67;;;2.77;;
37309;SDS011;23195;47.744;7.358;2023-07-16T21:10:18;4.70;;;2.23;;
37309;SDS011;23195;47.744;7.358;2023-07-16T21:12:48;5.57;;;2.83;;
37309;SDS011;23195;47.744;7.358;2023-07-16T21:15:14;5.03;;;2.50;;
37309;SDS011;23195;47.744;7.358;2023-07-16T21:17:40;4.77;;;2.60;;
37309;SDS011;23195;47.744;7.358;2023-07-16T21:20:07;6.03;;;2.43;;
37309;SDS011;23195;47.744;7.358;2023-07-16T21:22:34;6.10;;;2.67;;
37309;SDS011;23195;47.744;7.358;2023-07-16T21:25:01;6.23;;;2.63;;
37309;SDS011;23195;47.744;7.358;2023-07-16T21:27:28;4.80;;;2.23;;
37309;SDS011;23195;47.744;7.358;2023-07-16T21:29:56;5.03;;;2.50;;
37309;SDS011;23195;47.744;7.358;2023-07-16T21:32:22;5.23;;;2.60;;
37309;SDS011;23195;47.744;7.358;2023-07-16T21:34:49;4.47;;;2.40;;
37309;SDS011;23195;47.744;7.358;2023-07-16T21:37:15;3.73;;;2.10;;
37309;SDS011;23195;47.744;7.358;2023-07-16T21:39:44;6.33;;;2.60;;
37309;SDS011;23195;47.744;7.358;2023-07-16T21:42:10;3.87;;;2.60;;
37309;SDS011;23195;47.744;7.358;2023-07-16T21:44:37;4.43;;;2.23;;
37309;SDS011;23195;47.744;7.358;2023-07-16T21:47:04;6.57;;;2.60;;
37309;SDS011;23195;47.744;7.358;2023-07-16T21:49:30;4.47;;;2.37;;
37309;SDS011;23195;47.744;7.358;2023-07-16T21:51:59;7.07;;;2.67;;
37309;SDS011;23195;47.744;7.358;2023-07-16T21:54:26;6.13;;;2.63;;
37309;SDS011;23195;47.744;7.358;2023-07-16T21:56:52;8.23;;;3.10;;
37309;SDS011;23195;47.744;7.358;2023-07-16T21:59:18;5.23;;;2.60;;
37309;SDS011;23195;47.744;7.358;2023-07-16T22:01:44;6.83;;;2.50;;
37309;SDS011;23195;47.744;7.358;2023-07-16T22:04:10;6.80;;;2.63;;
37309;SDS011;23195;47.744;7.358;2023-07-16T22:06:39;8.80;;;2.70;;
37309;SDS011;23195;47.744;7.358;2023-07-16T22:09:05;6.93;;;2.83;;
37309;SDS011;23195;47.744;7.358;2023-07-16T22:11:34;8.47;;;2.67;;
37309;SDS011;23195;47.744;7.358;2023-07-16T22:14:04;5.43;;;2.37;;
37309;SDS011;23195;47.744;7.358;2023-07-16T22:16:30;10.23;;;2.40;;
37309;SDS011;23195;47.744;7.358;2023-07-16T22:18:59;5.50;;;2.47;;
37309;SDS011;23195;47.744;7.358;2023-07-16T22:21:36;4.77;;;2.47;;
37309;SDS011;23195;47.744;7.358;2023-07-16T22:24:03;7.70;;;2.73;;
37309;SDS011;23195;47.744;7.358;2023-07-16T22:26:29;4.30;;;2.20;;
37309;SDS011;23195;47.744;7.358;2023-07-16T22:28:56;6.70;;;2.37;;
37309;SDS011;23195;47.744;7.358;2023-07-16T22:31:22;7.43;;;2.70;;
37309;SDS011;23195;47.744;7.358;2023-07-16T22:33:47;4.93;;;2.57;;
37309;SDS011;23195;47.744;7.358;2023-07-16T22:36:13;6.60;;;2.97;;
37309;SDS011;23195;47.744;7.358;2023-07-16T22:38:39;4.90;;;2.77;;
37309;SDS011;23195;47.744;7.358;2023-07-16T22:41:06;5.67;;;3.00;;
37309;SDS011;23195;47.744;7.358;2023-07-16T22:43:32;6.83;;;2.90;;
37309;SDS011;23195;47.744;7.358;2023-07-16T22:45:58;5.53;;;2.70;;
37309;SDS011;23195;47.744;7.358;2023-07-16T22:48:24;9.07;;;2.67;;
37309;SDS011;23195;47.744;7.358;2023-07-16T22:50:50;5.63;;;2.60;;
37309;SDS011;23195;47.744;7.358;2023-07-16T22:53:16;5.10;;;2.63;;
37309;SDS011;23195;47.744;7.358;2023-07-16T22:55:41;7.93;;;3.00;;
37309;SDS011;23195;47.744;7.358;2023-07-16T22:58:09;10.37;;;2.80;;
37309;SDS011;23195;47.744;7.358;2023-07-16T23:00:35;8.13;;;2.50;;
37309;SDS011;23195;47.744;7.358;2023-07-16T23:03:01;9.47;;;2.97;;
37309;SDS011;23195;47.744;7.358;2023-07-16T23:05:27;6.53;;;2.73;;
37309;SDS011;23195;47.744;7.358;2023-07-16T23:07:53;6.70;;;2.60;;
37309;SDS011;23195;47.744;7.358;2023-07-16T23:10:19;5.13;;;2.50;;
37309;SDS011;23195;47.744;7.358;2023-07-16T23:12:44;4.57;;;2.70;;
37309;SDS011;23195;47.744;7.358;2023-07-16T23:15:10;8.57;;;3.03;;
37309;SDS011;23195;47.744;7.358;2023-07-16T23:17:37;8.43;;;2.83;;
37309;SDS011;23195;47.744;7.358;2023-07-16T23:20:06;6.17;;;3.03;;
37309;SDS011;23195;47.744;7.358;2023-07-16T23:22:35;6.10;;;2.97;;
37309;SDS011;23195;47.744;7.358;2023-07-16T23:25:02;7.60;;;2.47;;
37309;SDS011;23195;47.744;7.358;2023-07-16T23:27:29;7.33;;;2.43;;
37309;SDS011;23195;47.744;7.358;2023-07-16T23:29:55;5.27;;;2.83;;
37309;SDS011;23195;47.744;7.358;2023-07-16T23:32:24;8.73;;;2.67;;
37309;SDS011;23195;47.744;7.358;2023-07-16T23:34:50;7.80;;;2.70;;
37309;SDS011;23195;47.744;7.358;2023-07-16T23:37:16;5.57;;;2.70;;
37309;SDS011;23195;47.744;7.358;2023-07-16T23:39:42;6.07;;;2.80;;
37309;SDS011;23195;47.744;7.358;2023-07-16T23:42:07;8.20;;;3.23;;
37309;SDS011;23195;47.744;7.358;2023-07-16T23:44:33;8.77;;;2.77;;
37309;SDS011;23195;47.744;7.358;2023-07-16T23:46:59;5.57;;;2.77;;
37309;SDS011;23195;47.744;7.358;2023-07-16T23:49:25;6.37;;;2.57;;
37309;SDS011;23195;47.744;7.358;2023-07-16T23:51:51;6.90;;;3.10;;
37309;SDS011;23195;47.744;7.358;2023-07-16T23:54:18;5.97;;;3.37;;
37309;SDS011;23195;47.744;7.358;2023-07-16T23:56:44;4.03;;;3.00;;
37309;SDS011;23195;47.744;7.358;2023-07-16T23:59:09;7.10;;;3.10;;
